createdAt,value
2023-04-09T00:00:44.204Z,66.50
2023-04-09T00:03:11.633Z,66.80
2023-04-09T00:05:40.409Z,66.70
2023-04-09T00:08:08.192Z,66.20
2023-04-09T00:10:35.196Z,66.80
2023-04-09T00:13:02.096Z,65.80
2023-04-09T00:15:31.697Z,65.90
2023-04-09T00:17:59.658Z,66.20
2023-04-09T00:20:26.840Z,65.70
2023-04-09T00:22:54.166Z,65.00
2023-04-09T00:25:21.128Z,64.80
2023-04-09T00:27:48.076Z,64.30
2023-04-09T00:30:15.070Z,64.70
2023-04-09T00:32:42.303Z,64.60
2023-04-09T00:35:09.583Z,64.60
2023-04-09T00:37:36.498Z,64.50
2023-04-09T00:40:04.251Z,64.50
2023-04-09T00:42:36.469Z,64.80
2023-04-09T00:45:07.502Z,64.90
2023-04-09T00:47:35.558Z,64.60
2023-04-09T00:50:03.218Z,64.80
2023-04-09T00:52:33.215Z,65.00
2023-04-09T00:55:01.550Z,65.30
2023-04-09T00:57:29.078Z,65.20
2023-04-09T00:59:56.241Z,65.30
2023-04-09T01:02:23.629Z,65.20
2023-04-09T01:04:51.650Z,65.60
2023-04-09T01:07:46.955Z,65.60
2023-04-09T01:10:38.317Z,65.20
2023-04-09T01:13:11.077Z,65.70
2023-04-09T01:15:52.210Z,65.70
2023-04-09T01:18:29.471Z,66.20
2023-04-09T01:21:11.940Z,66.40
2023-04-09T01:24:11.049Z,66.90
2023-04-09T01:27:06.888Z,67.10
2023-04-09T01:29:47.872Z,67.40
2023-04-09T01:32:18.727Z,67.50
2023-04-09T01:34:47.840Z,67.10
2023-04-09T01:37:17.197Z,67.10
2023-04-09T01:39:45.078Z,67.50
2023-04-09T01:42:13.060Z,67.60
2023-04-09T01:44:40.564Z,67.80
2023-04-09T01:47:08.715Z,68.00
2023-04-09T01:49:39.558Z,68.30
2023-04-09T01:52:07.380Z,68.70
2023-04-09T01:54:34.227Z,69.30
2023-04-09T01:57:01.283Z,69.70
2023-04-09T01:59:28.130Z,69.80
2023-04-09T02:02:08.177Z,69.30
2023-04-09T02:04:43.925Z,68.60
2023-04-09T02:07:18.649Z,68.10
2023-04-09T02:09:48.370Z,67.40
2023-04-09T02:12:19.105Z,67.20
2023-04-09T02:14:52.170Z,67.10
2023-04-09T02:17:20.195Z,67.20
2023-04-09T02:19:47.855Z,67.40
2023-04-09T02:22:16.260Z,67.20
2023-04-09T02:24:43.381Z,67.50
2023-04-09T02:27:10.613Z,67.80
2023-04-09T02:29:40.652Z,67.80
2023-04-09T02:32:07.893Z,68.00
2023-04-09T02:34:34.860Z,68.00
2023-04-09T02:37:01.924Z,68.20
2023-04-09T02:39:28.808Z,68.40
2023-04-09T02:41:56.329Z,68.40
2023-04-09T02:44:23.451Z,68.20
2023-04-09T02:46:51.548Z,67.80
2023-04-09T02:49:18.479Z,68.10
2023-04-09T02:51:45.449Z,68.40
2023-04-09T02:54:12.683Z,68.60
2023-04-09T02:56:39.553Z,68.90
2023-04-09T02:59:06.469Z,69.10
2023-04-09T03:01:33.442Z,69.20
2023-04-09T03:04:01.182Z,69.40
2023-04-09T03:06:28.501Z,69.50
2023-04-09T03:08:55.633Z,69.40
2023-04-09T03:11:23.168Z,69.70
2023-04-09T03:13:50.260Z,70.00
2023-04-09T03:16:17.465Z,70.40
2023-04-09T03:18:44.328Z,70.30
2023-04-09T03:21:13.624Z,70.10
2023-04-09T03:23:46.311Z,69.70
2023-04-09T03:26:13.332Z,70.40
2023-04-09T03:28:47.181Z,69.70
2023-04-09T03:31:14.223Z,69.80
2023-04-09T03:33:42.443Z,70.00
2023-04-09T03:36:10.391Z,70.10
2023-04-09T03:38:53.564Z,70.30
2023-04-09T03:41:29.464Z,70.60
2023-04-09T03:43:58.278Z,70.90
2023-04-09T03:46:29.286Z,71.10
2023-04-09T03:48:58.207Z,70.90
2023-04-09T03:51:33.768Z,70.40
2023-04-09T03:54:01.076Z,70.30
2023-04-09T03:56:27.917Z,70.10
2023-04-09T03:58:55.209Z,70.30
2023-04-09T04:01:27.455Z,70.60
2023-04-09T04:03:58.650Z,70.70
2023-04-09T04:06:34.355Z,70.60
2023-04-09T04:09:13.133Z,70.70
2023-04-09T04:11:49.139Z,70.90
2023-04-09T04:14:17.200Z,70.70
2023-04-09T04:16:48.282Z,70.50
2023-04-09T04:19:18.793Z,70.10
2023-04-09T04:21:48.676Z,70.20
2023-04-09T04:24:16.546Z,70.10
2023-04-09T04:26:44.005Z,70.10
2023-04-09T04:29:13.924Z,69.90
2023-04-09T04:32:01.383Z,70.20
2023-04-09T04:34:34.087Z,70.00
2023-04-09T04:37:07.941Z,70.10
2023-04-09T04:39:34.925Z,70.10
2023-04-09T04:42:06.481Z,70.00
2023-04-09T04:44:33.437Z,70.10
2023-04-09T04:47:11.522Z,70.30
2023-04-09T04:49:38.869Z,70.50
2023-04-09T04:52:07.813Z,70.60
2023-04-09T04:54:35.616Z,70.50
2023-04-09T04:57:02.868Z,70.70
2023-04-09T04:59:40.760Z,70.80
2023-04-09T05:02:10.243Z,70.50
2023-04-09T05:04:48.222Z,70.40
2023-04-09T05:07:17.931Z,70.10
2023-04-09T05:09:50.503Z,70.10
2023-04-09T05:12:18.118Z,70.00
2023-04-09T05:14:49.841Z,70.30
2023-04-09T05:17:17.151Z,70.20
2023-04-09T05:19:51.710Z,70.00
2023-04-09T05:22:21.247Z,69.70
2023-04-09T05:24:48.148Z,69.00
2023-04-09T05:27:18.141Z,68.20
2023-04-09T05:29:47.229Z,67.70
2023-04-09T05:32:14.099Z,66.90
2023-04-09T05:34:41.170Z,66.80
2023-04-09T05:37:08.861Z,67.30
2023-04-09T05:39:35.825Z,66.90
2023-04-09T05:42:03.731Z,67.20
2023-04-09T05:44:34.315Z,67.20
2023-04-09T05:47:12.132Z,67.10
2023-04-09T05:49:45.669Z,66.20
2023-04-09T05:52:17.058Z,65.60
2023-04-09T05:54:44.325Z,64.90
2023-04-09T05:57:14.640Z,64.50
2023-04-09T05:59:47.333Z,64.30
2023-04-09T06:02:15.337Z,64.30
2023-04-09T06:04:42.268Z,64.20
2023-04-09T06:07:09.909Z,63.30
2023-04-09T06:09:36.736Z,63.10
2023-04-09T06:12:04.202Z,62.40
2023-04-09T06:14:33.188Z,62.00
2023-04-09T06:17:00.432Z,61.90
2023-04-09T06:19:28.040Z,61.50
2023-04-09T06:21:54.976Z,61.00
2023-04-09T06:24:22.024Z,60.40
2023-04-09T06:26:49.152Z,60.10
2023-04-09T06:29:16.307Z,60.00
2023-04-09T06:31:43.288Z,59.60
2023-04-09T06:34:11.056Z,59.40
2023-04-09T06:36:40.421Z,59.30
2023-04-09T06:39:07.574Z,58.80
2023-04-09T06:41:34.613Z,58.60
2023-04-09T06:44:10.885Z,58.30
2023-04-09T06:46:37.999Z,58.30
2023-04-09T06:49:04.955Z,58.40
2023-04-09T06:51:31.956Z,58.40
2023-04-09T06:53:59.273Z,57.90
2023-04-09T06:56:26.115Z,57.40
2023-04-09T06:58:53.240Z,57.40
2023-04-09T07:01:20.541Z,56.90
2023-04-09T07:03:47.477Z,56.40
2023-04-09T07:06:14.382Z,56.70
2023-04-09T07:08:41.206Z,56.20
2023-04-09T07:11:08.436Z,56.20
2023-04-09T07:13:35.297Z,56.70
2023-04-09T07:16:02.292Z,55.80
2023-04-09T07:18:29.263Z,55.50
2023-04-09T07:20:56.283Z,55.00
2023-04-09T07:23:23.153Z,54.90
2023-04-09T07:25:50.055Z,54.50
2023-04-09T07:28:16.997Z,53.40
2023-04-09T07:30:43.903Z,53.70
2023-04-09T07:33:10.755Z,54.30
2023-04-09T07:35:37.762Z,54.10
2023-04-09T07:38:04.672Z,54.00
2023-04-09T07:40:31.559Z,53.50
2023-04-09T07:42:58.618Z,52.70
2023-04-09T07:45:25.856Z,52.60
2023-04-09T07:47:52.834Z,52.30
2023-04-09T07:50:19.887Z,52.70
2023-04-09T07:52:47.381Z,52.80
2023-04-09T07:55:14.788Z,52.20
2023-04-09T07:57:43.151Z,53.10
2023-04-09T08:00:10.781Z,52.80
2023-04-09T08:02:40.298Z,52.10
2023-04-09T08:05:08.078Z,52.10
2023-04-09T08:07:35.038Z,51.90
2023-04-09T08:10:01.997Z,51.70
2023-04-09T08:12:28.843Z,51.90
2023-04-09T08:14:56.157Z,51.40
2023-04-09T08:17:23.415Z,51.50
2023-04-09T08:19:50.432Z,51.60
2023-04-09T08:22:17.368Z,52.20
2023-04-09T08:24:44.254Z,52.40
2023-04-09T08:27:11.149Z,52.40
2023-04-09T08:29:40.599Z,53.00
2023-04-09T08:32:08.163Z,52.70
2023-04-09T08:34:35.273Z,52.10
2023-04-09T08:37:02.503Z,52.50
2023-04-09T08:39:29.435Z,52.40
2023-04-09T08:42:01.790Z,52.60
2023-04-09T08:44:29.426Z,52.50
2023-04-09T08:46:58.490Z,52.60
2023-04-09T08:49:26.536Z,52.30
2023-04-09T08:51:53.397Z,52.60
2023-04-09T08:54:20.356Z,52.90
2023-04-09T08:56:47.717Z,51.50
2023-04-09T08:59:21.319Z,52.10
2023-04-09T09:01:54.149Z,50.10
2023-04-09T09:04:21.299Z,50.30
2023-04-09T09:06:48.178Z,49.60
2023-04-09T09:09:16.834Z,50.00
2023-04-09T09:11:46.232Z,49.40
2023-04-09T09:14:18.122Z,49.10
2023-04-09T09:17:04.310Z,49.00
2023-04-09T09:19:35.897Z,49.10
2023-04-09T09:22:08.133Z,48.70
2023-04-09T09:24:49.227Z,48.10
2023-04-09T09:27:36.705Z,48.50
2023-04-09T09:30:08.789Z,48.50
2023-04-09T09:32:36.401Z,49.20
2023-04-09T09:35:05.645Z,49.80
2023-04-09T09:37:33.939Z,48.70
2023-04-09T09:40:01.695Z,48.00
2023-04-09T09:42:28.642Z,47.00
2023-04-09T09:44:56.047Z,46.80
2023-04-09T09:47:25.316Z,46.70
2023-04-09T09:49:52.656Z,48.40
2023-04-09T09:52:27.201Z,48.70
2023-04-09T09:54:55.821Z,47.00
2023-04-09T09:57:26.240Z,46.60
2023-04-09T10:00:01.848Z,46.50
2023-04-09T10:02:53.940Z,47.40
2023-04-09T10:05:25.037Z,47.60
2023-04-09T10:07:54.546Z,48.20
2023-04-09T10:10:22.823Z,48.20
2023-04-09T10:12:51.157Z,48.80
2023-04-09T10:15:19.451Z,49.20
2023-04-09T10:17:46.426Z,49.60
2023-04-09T10:20:19.723Z,49.50
2023-04-09T10:22:49.662Z,50.10
2023-04-09T10:25:17.064Z,50.50
2023-04-09T10:27:49.219Z,50.70
2023-04-09T10:30:36.685Z,50.50
2023-04-09T10:33:10.275Z,50.20
2023-04-09T10:35:37.580Z,49.80
2023-04-09T10:38:08.531Z,49.90
2023-04-09T10:40:40.182Z,49.90
2023-04-09T10:43:08.850Z,49.50
2023-04-09T10:45:42.471Z,49.90
2023-04-09T10:48:14.099Z,49.40
2023-04-09T10:50:45.659Z,49.40
2023-04-09T10:53:26.329Z,49.80
2023-04-09T10:55:54.280Z,49.60
2023-04-09T10:58:21.487Z,49.40
2023-04-09T11:00:49.621Z,50.00
2023-04-09T11:03:17.463Z,49.80
2023-04-09T11:05:45.163Z,49.10
2023-04-09T11:08:14.384Z,48.80
2023-04-09T11:10:44.084Z,49.00
2023-04-09T11:13:16.434Z,49.40
2023-04-09T11:15:45.024Z,48.90
2023-04-09T11:18:19.841Z,48.30
2023-04-09T11:20:47.121Z,48.50
2023-04-09T11:23:15.691Z,48.40
2023-04-09T11:25:42.530Z,47.90
2023-04-09T11:28:09.447Z,48.50
2023-04-09T11:30:37.555Z,48.40
2023-04-09T11:33:04.428Z,48.90
2023-04-09T11:35:35.349Z,48.30
2023-04-09T11:38:10.419Z,48.50
2023-04-09T11:40:45.480Z,48.10
2023-04-09T11:43:12.406Z,48.20
2023-04-09T11:45:39.297Z,47.90
2023-04-09T11:48:06.712Z,48.20
2023-04-09T11:50:33.961Z,48.40
2023-04-09T11:53:00.997Z,48.00
2023-04-09T11:55:29.666Z,48.30
2023-04-09T11:58:03.592Z,48.20
2023-04-09T12:00:32.371Z,48.60
2023-04-09T12:03:04.223Z,48.70
2023-04-09T12:05:33.818Z,48.50
2023-04-09T12:08:07.324Z,48.80
2023-04-09T12:10:37.755Z,47.90
2023-04-09T12:13:07.800Z,47.90
2023-04-09T12:15:37.217Z,47.00
2023-04-09T12:18:07.795Z,46.80
2023-04-09T12:20:37.618Z,46.40
2023-04-09T12:23:06.036Z,47.80
2023-04-09T12:25:36.889Z,48.10
2023-04-09T12:28:05.858Z,47.30
2023-04-09T12:30:33.843Z,46.60
2023-04-09T12:33:02.733Z,46.60
2023-04-09T12:35:29.749Z,46.60
2023-04-09T12:37:56.624Z,47.00
2023-04-09T12:40:23.477Z,46.00
2023-04-09T12:42:50.383Z,47.00
2023-04-09T12:45:18.558Z,45.30
2023-04-09T12:47:45.828Z,45.70
2023-04-09T12:50:14.965Z,45.60
2023-04-09T12:52:41.991Z,46.20
2023-04-09T12:55:09.482Z,46.70
2023-04-09T12:57:38.677Z,46.40
2023-04-09T13:00:07.836Z,46.10
2023-04-09T13:02:35.496Z,46.30
2023-04-09T13:05:03.129Z,46.90
2023-04-09T13:07:30.629Z,46.90
2023-04-09T13:09:58.122Z,46.00
2023-04-09T13:12:25.162Z,45.60
2023-04-09T13:14:54.366Z,45.40
2023-04-09T13:17:22.122Z,45.20
2023-04-09T13:19:49.902Z,45.50
2023-04-09T13:22:16.873Z,45.50
2023-04-09T13:24:43.690Z,45.70
2023-04-09T13:27:11.335Z,45.80
2023-04-09T13:29:38.922Z,45.80
2023-04-09T13:32:10.982Z,45.90
2023-04-09T13:34:39.617Z,45.40
2023-04-09T13:37:06.859Z,46.10
2023-04-09T13:39:34.008Z,46.20
2023-04-09T13:42:07.199Z,46.10
2023-04-09T13:44:37.052Z,46.70
2023-04-09T13:47:03.929Z,46.10
2023-04-09T13:49:31.007Z,46.20
2023-04-09T13:51:58.628Z,46.60
2023-04-09T13:54:27.345Z,46.20
2023-04-09T13:56:54.184Z,46.90
2023-04-09T13:59:21.077Z,47.20
2023-04-09T14:01:47.950Z,46.30
2023-04-09T14:04:15.295Z,46.30
2023-04-09T14:06:42.566Z,45.80
2023-04-09T14:09:10.475Z,45.70
2023-04-09T14:11:37.725Z,45.70
2023-04-09T14:14:04.890Z,45.80
2023-04-09T14:16:31.829Z,45.70
2023-04-09T14:18:58.979Z,46.40
2023-04-09T14:21:26.950Z,45.00
2023-04-09T14:23:53.989Z,45.40
2023-04-09T14:26:22.212Z,46.30
2023-04-09T14:28:51.718Z,44.90
2023-04-09T14:31:21.791Z,44.40
2023-04-09T14:33:49.032Z,44.80
2023-04-09T14:36:16.708Z,45.40
2023-04-09T14:38:43.945Z,45.50
2023-04-09T14:41:10.830Z,45.30
2023-04-09T14:43:37.768Z,45.70
2023-04-09T14:46:06.447Z,47.20
2023-04-09T14:48:33.415Z,46.80
2023-04-09T14:51:00.485Z,46.10
2023-04-09T14:53:27.446Z,45.80
2023-04-09T14:55:54.279Z,45.80
2023-04-09T14:58:22.557Z,47.00
2023-04-09T15:00:50.361Z,46.20
2023-04-09T15:03:17.604Z,46.70
2023-04-09T15:05:44.736Z,46.90
2023-04-09T15:08:12.893Z,45.90
2023-04-09T15:10:39.819Z,46.40
2023-04-09T15:13:07.335Z,47.20
2023-04-09T15:15:34.292Z,47.10
2023-04-09T15:18:05.677Z,46.60
2023-04-09T15:20:37.314Z,46.70
2023-04-09T15:23:04.396Z,48.00
2023-04-09T15:25:31.472Z,46.80
2023-04-09T15:27:59.121Z,47.50
2023-04-09T15:30:27.491Z,46.90
2023-04-09T15:32:54.509Z,47.20
2023-04-09T15:35:25.996Z,47.10
2023-04-09T15:37:54.704Z,47.00
2023-04-09T15:40:21.674Z,46.70
2023-04-09T15:42:48.587Z,47.30
2023-04-09T15:45:16.447Z,47.60
2023-04-09T15:47:47.331Z,47.70
2023-04-09T15:50:14.742Z,47.30
2023-04-09T15:52:42.312Z,47.40
2023-04-09T15:55:10.152Z,47.30
2023-04-09T15:57:38.786Z,47.30
2023-04-09T16:00:10.978Z,47.70
2023-04-09T16:02:39.020Z,48.20
2023-04-09T16:05:07.149Z,47.60
2023-04-09T16:07:34.147Z,48.30
2023-04-09T16:10:02.374Z,48.30
2023-04-09T16:12:29.463Z,48.70
2023-04-09T16:14:56.632Z,48.40
2023-04-09T16:17:24.928Z,48.30
2023-04-09T16:19:51.807Z,48.50
2023-04-09T16:22:18.829Z,48.40
2023-04-09T16:24:45.865Z,49.20
2023-04-09T16:27:14.437Z,49.00
2023-04-09T16:29:41.201Z,49.00
2023-04-09T16:32:08.287Z,49.00
2023-04-09T16:34:35.876Z,49.50
2023-04-09T16:37:02.963Z,49.90
2023-04-09T16:39:30.062Z,50.10
2023-04-09T16:42:02.377Z,50.30
2023-04-09T16:44:31.409Z,50.20
2023-04-09T16:46:58.337Z,50.30
2023-04-09T16:49:25.389Z,50.40
2023-04-09T16:51:53.216Z,51.30
2023-04-09T16:54:20.841Z,50.90
2023-04-09T16:56:48.870Z,51.50
2023-04-09T16:59:18.576Z,51.90
2023-04-09T17:01:45.709Z,51.90
2023-04-09T17:04:12.705Z,52.40
2023-04-09T17:06:39.703Z,52.30
2023-04-09T17:09:07.464Z,52.10
2023-04-09T17:11:37.969Z,52.30
2023-04-09T17:14:06.070Z,52.30
2023-04-09T17:16:33.547Z,52.40
2023-04-09T17:19:00.932Z,52.90
2023-04-09T17:21:27.883Z,52.90
2023-04-09T17:23:55.008Z,52.80
2023-04-09T17:26:21.935Z,53.20
2023-04-09T17:28:48.826Z,52.50
2023-04-09T17:31:16.508Z,52.50
2023-04-09T17:33:44.639Z,52.50
2023-04-09T17:36:11.448Z,53.10
2023-04-09T17:38:38.458Z,53.10
2023-04-09T17:41:07.473Z,53.00
2023-04-09T17:43:34.935Z,53.20
2023-04-09T17:46:01.838Z,53.30
2023-04-09T17:48:30.802Z,53.20
2023-04-09T17:50:58.954Z,53.80
2023-04-09T17:53:26.643Z,53.60
2023-04-09T17:55:53.478Z,53.50
2023-04-09T17:58:20.618Z,53.70
2023-04-09T18:00:47.643Z,53.90
2023-04-09T18:03:15.716Z,54.00
2023-04-09T18:05:43.556Z,54.00
2023-04-09T18:08:10.804Z,54.10
2023-04-09T18:10:37.805Z,54.10
2023-04-09T18:13:04.798Z,54.10
2023-04-09T18:15:32.927Z,54.80
2023-04-09T18:17:59.895Z,55.00
2023-04-09T18:20:28.262Z,55.30
2023-04-09T18:22:55.873Z,55.40
2023-04-09T18:25:23.382Z,55.70
2023-04-09T18:27:50.394Z,55.80
2023-04-09T18:30:18.979Z,55.90
2023-04-09T18:32:48.274Z,56.10
2023-04-09T18:35:15.729Z,56.30
2023-04-09T18:37:42.822Z,56.50
2023-04-09T18:40:18.601Z,56.60
2023-04-09T18:42:49.177Z,56.80
2023-04-09T18:45:16.419Z,57.20
2023-04-09T18:47:43.762Z,57.30
2023-04-09T18:50:12.617Z,57.60
2023-04-09T18:52:39.525Z,57.80
2023-04-09T18:55:07.249Z,58.10
2023-04-09T18:57:34.205Z,58.40
2023-04-09T19:00:03.158Z,58.60
2023-04-09T19:02:30.409Z,58.80
2023-04-09T19:04:58.879Z,59.10
2023-04-09T19:07:29.025Z,59.30
2023-04-09T19:09:55.972Z,59.60
2023-04-09T19:12:23.837Z,59.90
2023-04-09T19:14:50.707Z,60.20
2023-04-09T19:17:17.966Z,60.80
2023-04-09T19:19:45.250Z,61.30
2023-04-09T19:22:12.581Z,61.60
2023-04-09T19:24:39.493Z,62.10
2023-04-09T19:27:09.810Z,63.00
2023-04-09T19:29:36.815Z,63.60
2023-04-09T19:32:04.995Z,64.00
2023-04-09T19:34:31.885Z,64.80
2023-04-09T19:36:58.789Z,65.70
2023-04-09T19:39:25.796Z,66.50
2023-04-09T19:41:52.758Z,66.70
2023-04-09T19:44:19.576Z,67.70
2023-04-09T19:46:46.806Z,68.10
2023-04-09T19:49:14.859Z,69.50
2023-04-09T19:51:41.674Z,71.20
2023-04-09T19:54:10.914Z,72.40
2023-04-09T19:56:38.541Z,75.30
2023-04-09T19:59:05.804Z,78.00
2023-04-09T20:01:32.819Z,80.70
2023-04-09T20:03:59.982Z,83.50
2023-04-09T20:06:27.219Z,87.90
2023-04-09T20:08:57.369Z,90.70
2023-04-09T20:11:24.559Z,92.30
2023-04-09T20:13:52.072Z,93.60
2023-04-09T20:16:18.967Z,94.20
2023-04-09T20:18:46.866Z,95.00
2023-04-09T20:21:14.541Z,95.80
2023-04-09T20:23:41.808Z,96.40
2023-04-09T20:26:11.290Z,97.10
2023-04-09T20:28:38.479Z,97.80
2023-04-09T20:31:06.361Z,98.70
2023-04-09T20:33:33.602Z,99.00
2023-04-09T20:36:01.321Z,99.40
2023-04-09T20:38:28.557Z,99.90
2023-04-09T20:40:55.508Z,99.90
2023-04-09T20:43:22.693Z,99.90
2023-04-09T20:45:49.793Z,99.90
2023-04-09T20:48:18.582Z,99.90
2023-04-09T20:50:45.809Z,99.90
2023-04-09T20:53:13.230Z,99.90
2023-04-09T20:55:40.144Z,99.90
2023-04-09T20:58:07.696Z,99.90
2023-04-09T21:00:35.140Z,99.90
2023-04-09T21:03:02.394Z,99.90
2023-04-09T21:05:29.828Z,99.90
2023-04-09T21:07:56.718Z,99.90
2023-04-09T21:10:23.655Z,99.90
2023-04-09T21:12:51.082Z,99.90
2023-04-09T21:15:18.112Z,99.90
2023-04-09T21:17:46.324Z,99.90
2023-04-09T21:20:15.062Z,99.90
2023-04-09T21:22:42.189Z,99.90
2023-04-09T21:25:09.252Z,99.90
2023-04-09T21:27:36.153Z,99.90
2023-04-09T21:30:03.846Z,99.90
2023-04-09T21:32:31.427Z,99.90
2023-04-09T21:35:00.216Z,99.90
2023-04-09T21:37:28.916Z,99.90
2023-04-09T21:39:55.815Z,99.90
2023-04-09T21:42:22.883Z,99.90
2023-04-09T21:44:49.767Z,99.90
2023-04-09T21:47:16.950Z,99.90
2023-04-09T21:49:43.988Z,99.90
2023-04-09T21:52:14.896Z,99.90
2023-04-09T21:54:43.134Z,99.90
2023-04-09T21:57:11.164Z,99.90
2023-04-09T21:59:38.450Z,99.90
2023-04-09T22:02:05.772Z,99.90
2023-04-09T22:04:35.022Z,99.90
2023-04-09T22:07:02.616Z,99.90
2023-04-09T22:09:30.396Z,99.90
2023-04-09T22:11:58.605Z,99.90
2023-04-09T22:14:29.198Z,99.90
2023-04-09T22:16:58.474Z,99.90
2023-04-09T22:19:26.356Z,99.90
2023-04-09T22:21:53.811Z,99.90
2023-04-09T22:24:26.895Z,99.90
2023-04-09T22:26:54.141Z,99.90
2023-04-09T22:29:22.655Z,99.90
2023-04-09T22:31:49.556Z,99.90
2023-04-09T22:34:21.197Z,99.90
2023-04-09T22:36:49.167Z,99.90
2023-04-09T22:39:16.401Z,99.90
2023-04-09T22:41:43.419Z,99.90
2023-04-09T22:44:10.576Z,99.90
2023-04-09T22:46:38.126Z,99.90
2023-04-09T22:49:06.144Z,99.90
2023-04-09T22:51:35.872Z,99.90
2023-04-09T22:54:02.939Z,99.90
2023-04-09T22:56:31.732Z,99.90
2023-04-09T22:58:59.009Z,99.90
2023-04-09T23:01:26.942Z,99.90
2023-04-09T23:03:54.264Z,99.90
2023-04-09T23:06:22.589Z,99.90
2023-04-09T23:08:49.867Z,99.90
2023-04-09T23:11:17.364Z,99.90
2023-04-09T23:13:44.411Z,99.90
2023-04-09T23:16:11.610Z,99.90
2023-04-09T23:18:39.124Z,99.90
2023-04-09T23:21:10.612Z,99.90
2023-04-09T23:23:38.723Z,99.90
2023-04-09T23:26:05.976Z,99.90
2023-04-09T23:28:33.582Z,99.90
2023-04-09T23:31:00.668Z,99.90
2023-04-09T23:33:27.737Z,99.90
2023-04-09T23:35:54.809Z,99.90
2023-04-09T23:38:22.100Z,99.90
2023-04-09T23:40:49.335Z,99.90
2023-04-09T23:43:16.580Z,99.90
2023-04-09T23:45:46.512Z,99.90
2023-04-09T23:48:13.398Z,99.90
2023-04-09T23:50:41.313Z,99.90
2023-04-09T23:53:08.927Z,99.90
2023-04-09T23:55:41.079Z,99.90
2023-04-09T23:58:08.467Z,99.90
